createdAt,value
2023-05-17T00:01:01.801Z,99921.20
2023-05-17T00:03:28.832Z,99922.63
2023-05-17T00:08:34.702Z,99927.73
2023-05-17T00:11:01.711Z,99929.91
2023-05-17T00:13:28.550Z,99932.80
2023-05-17T00:15:55.352Z,99931.84
2023-05-17T00:18:22.567Z,99934.54
2023-05-17T00:20:49.535Z,99935.52
2023-05-17T00:23:16.374Z,99935.52
2023-05-17T00:25:43.409Z,99938.15
2023-05-17T00:28:10.230Z,99939.77
2023-05-17T00:30:37.177Z,99942.80
2023-05-17T00:33:04.499Z,99946.18
2023-05-17T00:35:31.516Z,99949.61
2023-05-17T00:37:58.441Z,99949.92
2023-05-17T00:40:25.337Z,99947.71
2023-05-17T00:42:52.146Z,99950.39
2023-05-17T00:45:19.000Z,99951.13
2023-05-17T00:47:46.377Z,99950.61
2023-05-17T00:50:13.483Z,99945.67
2023-05-17T00:52:40.391Z,99952.37
2023-05-17T00:55:07.982Z,99953.86
2023-05-17T00:57:35.253Z,99955.23
2023-05-17T01:00:02.323Z,99955.73
2023-05-17T01:02:29.354Z,99952.32
2023-05-17T01:04:56.350Z,99950.18
2023-05-17T01:07:23.686Z,99947.34
2023-05-17T01:09:50.720Z,99950.37
2023-05-17T01:12:43.901Z,99951.84
2023-05-17T01:15:24.224Z,99946.84
2023-05-17T01:18:12.733Z,99947.64
2023-05-17T01:20:47.658Z,99945.36
2023-05-17T01:23:42.258Z,99942.35
2023-05-17T01:26:21.913Z,99938.20
2023-05-17T01:28:52.548Z,99936.43
2023-05-17T01:31:19.672Z,99939.63
2023-05-17T01:33:47.071Z,99937.11
2023-05-17T01:36:14.117Z,99936.38
2023-05-17T01:38:41.697Z,99937.48
2023-05-17T01:41:14.301Z,99942.42
2023-05-17T01:44:07.546Z,99939.52
2023-05-17T01:46:39.133Z,99945.80
2023-05-17T01:49:15.170Z,99944.79
2023-05-17T01:51:51.210Z,99941.64
2023-05-17T01:54:22.029Z,99943.33
2023-05-17T01:56:52.068Z,99946.58
2023-05-17T01:59:25.249Z,99938.58
2023-05-17T02:02:06.381Z,99943.45
2023-05-17T02:04:33.302Z,99938.88
2023-05-17T02:07:02.925Z,99940.48
2023-05-17T02:09:30.172Z,99939.06
2023-05-17T02:11:57.388Z,99944.55
2023-05-17T02:14:24.239Z,99945.36
2023-05-17T02:16:51.176Z,99945.11
2023-05-17T02:19:18.143Z,99948.64
2023-05-17T02:21:45.152Z,99945.88
2023-05-17T02:24:12.092Z,99944.91
2023-05-17T02:26:42.917Z,99946.02
2023-05-17T02:29:11.260Z,99946.63
2023-05-17T02:31:38.160Z,99948.88
2023-05-17T02:34:05.048Z,99944.92
2023-05-17T02:36:32.650Z,99950.39
2023-05-17T02:38:59.577Z,99950.59
2023-05-17T02:41:26.401Z,99954.50
2023-05-17T02:43:53.310Z,99955.53
2023-05-17T02:46:20.148Z,99957.98
2023-05-17T02:48:46.977Z,99959.55
2023-05-17T02:51:14.198Z,99961.08
2023-05-17T02:53:41.045Z,99961.67
2023-05-17T02:56:08.510Z,99958.70
2023-05-17T02:58:35.606Z,99962.64
2023-05-17T03:01:02.882Z,99966.52
2023-05-17T03:03:31.782Z,99968.17
2023-05-17T03:06:02.676Z,99971.35
2023-05-17T03:08:29.805Z,99970.30
2023-05-17T03:10:57.544Z,99972.52
2023-05-17T03:13:24.596Z,99973.38
2023-05-17T03:15:51.545Z,99976.77
2023-05-17T03:18:18.536Z,99975.88
2023-05-17T03:20:45.841Z,99976.70
2023-05-17T03:23:12.833Z,99979.27
2023-05-17T03:25:49.067Z,99984.50
2023-05-17T03:28:16.171Z,99983.37
2023-05-17T03:30:43.746Z,99984.08
2023-05-17T03:33:10.750Z,99986.94
2023-05-17T03:35:37.759Z,99988.08
2023-05-17T03:38:04.637Z,99991.00
2023-05-17T03:40:32.151Z,99990.75
2023-05-17T03:42:59.821Z,99992.27
2023-05-17T03:45:27.775Z,99992.47
2023-05-17T03:47:55.114Z,99993.45
2023-05-17T03:50:22.829Z,99996.20
2023-05-17T03:52:50.489Z,100000.05
2023-05-17T03:55:17.625Z,100002.36
2023-05-17T03:57:44.507Z,100005.23
2023-05-17T04:00:12.607Z,100011.41
2023-05-17T04:02:42.287Z,100012.46
2023-05-17T04:05:09.749Z,100015.21
2023-05-17T04:07:37.172Z,100015.33
2023-05-17T04:10:04.306Z,100017.80
2023-05-17T04:12:31.188Z,100019.15
2023-05-17T04:14:58.875Z,100019.16
2023-05-17T04:17:26.116Z,100020.55
2023-05-17T04:19:52.983Z,100022.64
2023-05-17T04:22:20.979Z,100023.02
2023-05-17T04:24:47.938Z,100027.41
2023-05-17T04:27:15.326Z,100028.64
2023-05-17T04:29:42.561Z,100033.70
2023-05-17T04:32:10.123Z,100034.04
2023-05-17T04:34:37.613Z,100036.69
2023-05-17T04:37:05.305Z,100035.34
2023-05-17T04:39:33.168Z,100039.30
2023-05-17T04:42:00.170Z,100037.90
2023-05-17T04:44:27.346Z,100041.11
2023-05-17T04:46:54.712Z,100037.36
2023-05-17T04:49:21.665Z,100040.17
2023-05-17T04:51:48.680Z,100041.04
2023-05-17T04:54:16.131Z,100043.94
2023-05-17T04:56:43.487Z,100046.77
2023-05-17T04:59:14.619Z,100049.17
2023-05-17T05:01:41.760Z,100052.98
2023-05-17T05:04:08.797Z,100052.95
2023-05-17T05:06:40.844Z,100057.23
2023-05-17T05:09:08.239Z,100054.97
2023-05-17T05:11:36.434Z,100060.38
2023-05-17T05:14:03.819Z,100059.08
2023-05-17T05:16:31.067Z,100059.92
2023-05-17T05:18:58.469Z,100062.29
2023-05-17T05:21:25.862Z,100067.05
2023-05-17T05:23:52.924Z,100069.19
2023-05-17T05:26:20.296Z,100071.22
2023-05-17T05:28:47.408Z,100073.64
2023-05-17T05:31:14.581Z,100075.22
2023-05-17T05:33:45.924Z,100073.85
2023-05-17T05:36:13.263Z,100073.00
2023-05-17T05:38:41.077Z,100074.16
2023-05-17T05:41:08.079Z,100076.33
2023-05-17T05:43:37.896Z,100080.12
2023-05-17T05:46:05.117Z,100085.27
2023-05-17T05:48:32.309Z,100086.73
2023-05-17T05:50:59.544Z,100087.66
2023-05-17T05:53:26.704Z,100085.85
2023-05-17T05:55:55.705Z,100080.66
2023-05-17T05:58:22.628Z,100084.80
2023-05-17T06:00:49.560Z,100088.41
2023-05-17T06:03:16.562Z,100091.50
2023-05-17T06:05:43.758Z,100094.41
2023-05-17T06:08:10.843Z,100093.86
2023-05-17T06:10:37.716Z,100094.45
2023-05-17T06:13:04.574Z,100095.02
2023-05-17T06:15:31.487Z,100097.89
2023-05-17T06:17:58.501Z,100093.08
2023-05-17T06:20:25.558Z,100093.40
2023-05-17T06:22:52.806Z,100094.86
2023-05-17T06:25:20.092Z,100095.33
2023-05-17T06:27:47.046Z,100092.15
2023-05-17T06:30:14.338Z,100093.85
2023-05-17T06:32:44.880Z,100093.95
2023-05-17T06:35:11.889Z,100097.12
2023-05-17T06:37:38.794Z,100098.16
2023-05-17T06:40:14.896Z,100100.52
2023-05-17T06:42:43.072Z,100098.22
2023-05-17T06:45:11.245Z,100097.16
2023-05-17T06:47:38.399Z,100098.20
2023-05-17T06:50:06.993Z,100098.27
2023-05-17T06:52:34.018Z,100098.69
2023-05-17T06:55:01.077Z,100097.23
2023-05-17T06:57:27.995Z,100094.31
2023-05-17T06:59:54.842Z,100090.00
2023-05-17T07:02:22.065Z,100091.45
2023-05-17T07:04:49.028Z,100091.85
2023-05-17T07:07:16.519Z,100093.96
2023-05-17T07:09:43.732Z,100090.77
2023-05-17T07:12:10.999Z,100092.25
2023-05-17T07:14:37.829Z,100092.20
2023-05-17T07:17:05.116Z,100092.54
2023-05-17T07:19:32.315Z,100092.95
2023-05-17T07:21:59.328Z,100095.95
2023-05-17T07:24:26.175Z,100094.88
2023-05-17T07:26:53.062Z,100098.19
2023-05-17T07:29:19.896Z,100100.02
2023-05-17T07:31:47.071Z,100099.38
2023-05-17T07:34:14.274Z,100099.29
2023-05-17T07:36:41.290Z,100099.20
2023-05-17T07:39:09.326Z,100097.41
2023-05-17T07:41:36.947Z,100101.06
2023-05-17T07:44:03.938Z,100103.67
2023-05-17T07:46:30.860Z,100100.16
2023-05-17T07:48:58.961Z,100101.40
2023-05-17T07:51:26.517Z,100102.42
2023-05-17T07:53:53.514Z,100102.66
2023-05-17T07:56:20.621Z,100103.23
2023-05-17T07:58:47.567Z,100106.24
2023-05-17T08:01:14.485Z,100107.23
2023-05-17T08:03:48.411Z,100109.77
2023-05-17T08:06:16.692Z,100109.93
2023-05-17T08:08:43.846Z,100107.49
2023-05-17T08:11:11.452Z,100113.87
2023-05-17T08:13:38.291Z,100113.96
2023-05-17T08:16:13.476Z,100113.47
2023-05-17T08:18:42.892Z,100114.09
2023-05-17T08:21:11.464Z,100111.13
2023-05-17T08:23:39.102Z,100116.15
2023-05-17T08:26:06.366Z,100117.92
2023-05-17T08:28:33.630Z,100119.61
2023-05-17T08:31:00.546Z,100122.92
2023-05-17T08:33:27.571Z,100121.27
2023-05-17T08:35:55.617Z,100120.70
2023-05-17T08:38:22.795Z,100121.80
2023-05-17T08:40:56.464Z,100126.06
2023-05-17T08:43:26.884Z,100126.38
2023-05-17T08:45:54.615Z,100123.27
2023-05-17T08:48:22.057Z,100126.20
2023-05-17T08:50:50.843Z,100124.77
2023-05-17T08:53:18.233Z,100120.39
2023-05-17T08:55:47.416Z,100123.63
2023-05-17T08:58:15.179Z,100125.72
2023-05-17T09:00:42.256Z,100122.21
2023-05-17T09:03:09.682Z,100121.19
2023-05-17T09:05:36.737Z,100120.81
2023-05-17T09:08:03.970Z,100117.27
2023-05-17T09:10:31.791Z,100120.02
2023-05-17T09:12:58.871Z,100117.50
2023-05-17T09:15:27.281Z,100116.08
2023-05-17T09:17:54.353Z,100118.28
2023-05-17T09:20:35.505Z,100111.03
2023-05-17T09:23:04.517Z,100112.77
2023-05-17T09:25:31.967Z,100111.73
2023-05-17T09:28:09.412Z,100113.98
2023-05-17T09:30:38.321Z,100107.22
2023-05-17T09:33:11.802Z,100108.39
2023-05-17T09:35:40.076Z,100108.45
2023-05-17T09:38:11.602Z,100110.98
2023-05-17T09:40:45.227Z,100109.17
2023-05-17T09:43:12.463Z,100104.11
2023-05-17T09:45:39.526Z,100105.69
2023-05-17T09:48:19.243Z,100107.00
2023-05-17T09:50:49.833Z,100100.78
2023-05-17T09:53:27.464Z,100101.44
2023-05-17T09:55:55.764Z,100100.23
2023-05-17T09:58:23.233Z,100098.89
2023-05-17T10:00:54.988Z,100098.30
2023-05-17T10:03:22.423Z,100099.52
2023-05-17T10:05:52.315Z,100098.13
2023-05-17T10:08:23.233Z,100098.81
2023-05-17T10:10:53.050Z,100100.33
2023-05-17T10:13:22.619Z,100101.79
2023-05-17T10:15:49.463Z,100099.33
2023-05-17T10:18:16.611Z,100099.41
2023-05-17T10:20:44.148Z,100101.36
2023-05-17T10:23:14.265Z,100100.67
2023-05-17T10:25:41.254Z,100100.48
2023-05-17T10:28:08.241Z,100098.14
2023-05-17T10:30:35.081Z,100100.20
2023-05-17T10:33:02.232Z,100101.61
2023-05-17T10:35:29.577Z,100098.66
2023-05-17T10:37:56.729Z,100096.63
2023-05-17T10:40:23.867Z,100098.70
2023-05-17T10:42:52.580Z,100098.80
2023-05-17T10:45:25.483Z,100096.70
2023-05-17T10:47:52.994Z,100096.58
2023-05-17T10:50:24.385Z,100095.68
2023-05-17T10:52:51.865Z,100094.05
2023-05-17T10:55:27.434Z,100091.67
2023-05-17T10:58:11.660Z,100088.74
2023-05-17T11:00:42.738Z,100088.62
2023-05-17T11:03:14.297Z,100089.25
2023-05-17T11:05:46.432Z,100090.89
2023-05-17T11:08:15.918Z,100086.76
2023-05-17T11:11:17.402Z,100088.89
2023-05-17T11:13:52.398Z,100087.34
2023-05-17T11:16:21.602Z,100085.40
2023-05-17T11:18:52.843Z,100090.47
2023-05-17T11:21:21.562Z,100089.69
2023-05-17T11:23:49.274Z,100090.74
2023-05-17T11:26:24.162Z,100090.92
2023-05-17T11:29:01.573Z,100088.52
2023-05-17T11:31:36.120Z,100087.43
2023-05-17T11:34:03.876Z,100083.56
2023-05-17T11:36:31.554Z,100084.83
2023-05-17T11:39:14.899Z,100084.02
2023-05-17T11:41:52.038Z,100088.77
2023-05-17T11:44:28.997Z,100081.10
2023-05-17T11:47:03.731Z,100081.83
2023-05-17T11:49:35.545Z,100084.33
2023-05-17T11:52:07.177Z,100080.40
2023-05-17T11:54:34.893Z,100079.90
2023-05-17T11:57:04.690Z,100079.60
2023-05-17T11:59:38.601Z,100078.35
2023-05-17T12:02:05.900Z,100076.00
2023-05-17T12:04:36.495Z,100074.19
2023-05-17T12:07:04.250Z,100066.49
2023-05-17T12:09:31.502Z,100067.90
2023-05-17T12:12:00.143Z,100067.40
2023-05-17T12:14:27.752Z,100067.27
2023-05-17T12:16:56.491Z,100064.61
2023-05-17T12:19:25.239Z,100061.79
2023-05-17T12:21:52.140Z,100059.90
2023-05-17T12:26:31.102Z,100056.95
2023-05-17T12:28:59.153Z,100047.67
2023-05-17T12:31:32.536Z,100046.90
2023-05-17T12:33:59.681Z,100041.05
2023-05-17T12:36:28.532Z,100038.27
2023-05-17T12:38:55.946Z,100035.94
2023-05-17T12:41:23.113Z,100032.87
2023-05-17T12:43:50.575Z,100031.19
2023-05-17T12:46:22.630Z,100031.45
2023-05-17T12:48:51.398Z,100030.29
2023-05-17T12:51:22.868Z,100029.23
2023-05-17T12:53:49.722Z,100031.69
2023-05-17T12:56:37.922Z,100030.42
2023-05-17T12:59:17.428Z,100026.84
2023-05-17T13:01:45.070Z,100025.20
2023-05-17T13:04:12.690Z,100023.52
2023-05-17T13:06:57.174Z,100022.79
2023-05-17T13:09:25.711Z,100024.17
2023-05-17T13:11:56.596Z,100023.30
2023-05-17T13:14:34.335Z,100024.36
2023-05-17T13:17:02.659Z,100021.48
2023-05-17T13:19:29.631Z,100025.92
2023-05-17T13:21:56.922Z,100030.52
2023-05-17T13:24:25.088Z,100027.34
2023-05-17T13:26:52.107Z,100031.80
2023-05-17T13:29:22.857Z,100028.33
2023-05-17T13:31:55.546Z,100027.20
2023-05-17T13:34:22.355Z,100029.67
2023-05-17T13:36:49.341Z,100029.12
2023-05-17T13:39:16.885Z,100029.58
2023-05-17T13:41:43.734Z,100029.48
2023-05-17T13:44:10.870Z,100031.31
2023-05-17T13:46:37.945Z,100027.70
2023-05-17T13:49:05.005Z,100024.14
2023-05-17T13:51:31.886Z,100025.39
2023-05-17T13:53:58.871Z,100020.98
2023-05-17T13:56:25.915Z,100018.24
2023-05-17T13:58:53.135Z,100012.66
2023-05-17T14:01:20.060Z,100014.88
2023-05-17T14:03:47.050Z,100017.45
2023-05-17T14:06:14.097Z,100018.79
2023-05-17T14:08:42.009Z,100014.36
2023-05-17T14:11:08.866Z,100014.15
2023-05-17T14:13:35.690Z,100017.64
2023-05-17T14:16:02.541Z,100012.92
2023-05-17T14:18:31.544Z,100009.60
2023-05-17T14:20:58.698Z,100006.88
2023-05-17T14:23:26.365Z,100008.00
2023-05-17T14:25:53.316Z,100003.29
2023-05-17T14:28:20.142Z,100002.38
2023-05-17T14:30:47.496Z,100000.27
2023-05-17T14:33:14.417Z,99997.88
2023-05-17T14:35:41.485Z,100001.71
2023-05-17T14:38:08.338Z,99999.70
2023-05-17T14:40:35.293Z,99995.27
2023-05-17T14:43:02.150Z,99994.23
2023-05-17T14:45:29.065Z,99997.88
2023-05-17T14:47:55.961Z,99997.05
2023-05-17T14:50:22.912Z,99996.67
2023-05-17T14:52:49.987Z,99995.71
2023-05-17T14:55:17.059Z,99998.19
2023-05-17T14:57:43.848Z,99994.27
2023-05-17T15:00:11.631Z,99992.02
2023-05-17T15:02:38.534Z,99988.67
2023-05-17T15:05:06.205Z,99988.77
2023-05-17T15:07:33.968Z,99989.85
2023-05-17T15:10:01.420Z,99987.48
2023-05-17T15:12:28.579Z,99987.03
2023-05-17T15:14:55.436Z,99986.05
2023-05-17T15:17:23.105Z,99989.92
2023-05-17T15:19:50.606Z,99986.83
2023-05-17T15:22:18.259Z,99988.58
2023-05-17T15:24:45.319Z,99988.46
2023-05-17T15:27:15.997Z,99986.48
2023-05-17T15:29:43.908Z,99985.81
2023-05-17T15:32:10.862Z,99983.50
2023-05-17T15:34:37.666Z,99989.68
2023-05-17T15:37:04.694Z,99989.44
2023-05-17T15:39:31.583Z,99989.88
2023-05-17T15:41:58.399Z,99993.33
2023-05-17T15:44:25.394Z,99990.73
2023-05-17T15:46:52.264Z,99989.64
2023-05-17T15:49:19.267Z,99991.19
2023-05-17T15:51:46.670Z,99991.73
2023-05-17T15:54:14.467Z,99995.35
2023-05-17T15:56:42.109Z,99999.06
2023-05-17T15:59:08.973Z,99993.77
2023-05-17T16:01:36.220Z,99994.56
2023-05-17T16:04:03.109Z,99992.30
2023-05-17T16:06:36.072Z,99995.66
2023-05-17T16:09:03.121Z,99998.34
2023-05-17T16:11:30.017Z,99998.01
2023-05-17T16:13:57.319Z,100000.30
2023-05-17T16:16:24.210Z,99994.94
2023-05-17T16:18:51.376Z,99995.45
2023-05-17T16:21:18.636Z,99995.41
2023-05-17T16:23:46.598Z,100000.34
2023-05-17T16:26:13.415Z,100000.90
2023-05-17T16:28:40.800Z,100000.41
2023-05-17T16:31:07.765Z,99999.83
2023-05-17T16:33:34.927Z,100001.94
2023-05-17T16:36:04.015Z,100003.98
2023-05-17T16:38:31.467Z,100003.77
2023-05-17T16:41:03.206Z,100002.44
2023-05-17T16:43:31.015Z,99999.12
2023-05-17T16:45:57.919Z,100003.30
2023-05-17T16:48:24.978Z,100007.55
2023-05-17T16:50:52.016Z,100008.20
2023-05-17T16:53:18.913Z,100013.28
2023-05-17T16:55:45.820Z,100010.86
2023-05-17T16:58:13.249Z,100008.98
2023-05-17T17:00:40.656Z,100009.71
2023-05-17T17:03:09.583Z,100006.52
2023-05-17T17:05:37.336Z,100005.72
2023-05-17T17:08:04.211Z,100002.93
2023-05-17T17:10:31.548Z,100001.15
2023-05-17T17:12:58.654Z,100000.59
2023-05-17T17:15:25.556Z,100001.61
2023-05-17T17:17:52.542Z,100004.83
2023-05-17T17:20:19.864Z,100002.79
2023-05-17T17:22:47.055Z,100006.64
2023-05-17T17:25:13.986Z,100004.42
2023-05-17T17:27:40.885Z,100005.56
2023-05-17T17:30:08.497Z,100005.71
2023-05-17T17:32:35.541Z,100008.12
2023-05-17T17:35:02.703Z,100006.73
2023-05-17T17:37:29.527Z,100003.80
2023-05-17T17:39:56.406Z,100009.73
2023-05-17T17:42:23.414Z,100013.77
2023-05-17T17:44:50.293Z,100017.66
2023-05-17T17:47:17.353Z,100013.94
2023-05-17T17:49:44.424Z,100019.45
2023-05-17T17:52:11.326Z,100021.38
2023-05-17T17:54:38.130Z,100018.77
2023-05-17T17:57:05.625Z,100021.73
2023-05-17T17:59:32.563Z,100019.83
2023-05-17T18:02:02.366Z,100016.52
2023-05-17T18:04:29.237Z,100017.38
2023-05-17T18:06:56.401Z,100013.98
2023-05-17T18:09:23.736Z,100019.21
2023-05-17T18:11:51.072Z,100026.59
2023-05-17T18:14:18.186Z,100028.69
2023-05-17T18:16:45.294Z,100027.40
2023-05-17T18:19:12.350Z,100029.32
2023-05-17T18:21:39.401Z,100030.07
2023-05-17T18:24:07.067Z,100029.56
2023-05-17T18:26:33.898Z,100029.98
2023-05-17T18:29:01.973Z,100028.95
2023-05-17T18:31:28.902Z,100031.01
2023-05-17T18:33:57.310Z,100031.71
2023-05-17T18:36:24.515Z,100027.92
2023-05-17T18:38:51.348Z,100025.07
2023-05-17T18:41:18.269Z,100026.91
2023-05-17T18:43:45.149Z,100029.33
2023-05-17T18:46:13.185Z,100031.39
2023-05-17T18:48:41.021Z,100031.46
2023-05-17T18:51:07.891Z,100035.58
2023-05-17T18:53:36.353Z,100037.70
2023-05-17T18:56:03.239Z,100036.80
2023-05-17T18:58:30.080Z,100034.55
2023-05-17T19:00:57.115Z,100034.34
2023-05-17T19:03:24.461Z,100032.11
2023-05-17T19:05:51.267Z,100037.80
2023-05-17T19:08:18.270Z,100039.06
2023-05-17T19:10:45.991Z,100041.30
2023-05-17T19:13:13.922Z,100038.73
2023-05-17T19:15:42.039Z,100039.23
2023-05-17T19:18:09.028Z,100035.05
2023-05-17T19:20:35.973Z,100039.44
2023-05-17T19:23:03.716Z,100040.95
2023-05-17T19:25:30.727Z,100042.41
2023-05-17T19:27:57.692Z,100047.05
2023-05-17T19:30:24.614Z,100042.23
2023-05-17T19:32:51.593Z,100045.70
2023-05-17T19:35:18.618Z,100045.11
2023-05-17T19:37:45.490Z,100041.09
2023-05-17T19:40:13.095Z,100040.61
2023-05-17T19:42:40.127Z,100042.35
2023-05-17T19:45:10.721Z,100042.88
2023-05-17T19:47:37.920Z,100046.69
2023-05-17T19:50:05.310Z,100048.09
2023-05-17T19:52:32.193Z,100049.63
2023-05-17T19:54:59.424Z,100048.20
2023-05-17T19:57:26.342Z,100048.32
2023-05-17T19:59:53.212Z,100049.79
2023-05-17T20:02:20.207Z,100050.48
2023-05-17T20:04:47.787Z,100046.11
2023-05-17T20:07:15.530Z,100047.98
2023-05-17T20:09:42.455Z,100048.36
2023-05-17T20:12:09.339Z,100050.29
2023-05-17T20:14:37.887Z,100052.71
2023-05-17T20:17:04.890Z,100054.77
2023-05-17T20:19:32.068Z,100054.92
2023-05-17T20:21:59.056Z,100054.34
2023-05-17T20:24:28.969Z,100057.56
2023-05-17T20:26:59.066Z,100056.41
2023-05-17T20:29:26.305Z,100054.50
2023-05-17T20:31:53.297Z,100056.52
2023-05-17T20:34:20.998Z,100058.71
2023-05-17T20:36:47.988Z,100057.98
2023-05-17T20:39:15.520Z,100060.63
2023-05-17T20:41:42.487Z,100061.52
2023-05-17T20:44:09.384Z,100061.80
2023-05-17T20:46:36.691Z,100061.63
2023-05-17T20:49:03.546Z,100068.09
2023-05-17T20:51:31.116Z,100063.50
2023-05-17T20:53:57.998Z,100066.54
2023-05-17T20:56:25.895Z,100065.39
2023-05-17T20:58:52.849Z,100065.52
2023-05-17T21:01:19.932Z,100069.30
2023-05-17T21:03:47.149Z,100069.70
2023-05-17T21:06:14.226Z,100073.17
2023-05-17T21:08:42.886Z,100070.54
2023-05-17T21:11:10.091Z,100070.27
2023-05-17T21:13:37.390Z,100064.91
2023-05-17T21:16:04.339Z,100066.70
2023-05-17T21:18:31.592Z,100063.73
2023-05-17T21:20:58.453Z,100063.82
2023-05-17T21:23:25.262Z,100063.13
2023-05-17T21:25:52.152Z,100065.23
2023-05-17T21:28:18.965Z,100064.57
2023-05-17T21:30:45.969Z,100062.30
2023-05-17T21:33:13.107Z,100066.17
2023-05-17T21:35:40.015Z,100060.88
2023-05-17T21:38:06.881Z,100061.23
2023-05-17T21:40:33.879Z,100060.98
2023-05-17T21:43:01.440Z,100064.35
2023-05-17T21:45:28.369Z,100059.44
2023-05-17T21:47:55.280Z,100064.08
2023-05-17T21:50:22.401Z,100066.45
2023-05-17T21:52:49.464Z,100068.08
2023-05-17T21:55:16.269Z,100069.39
2023-05-17T21:57:43.095Z,100065.13
2023-05-17T22:00:15.315Z,100064.90
2023-05-17T22:02:46.034Z,100064.55
2023-05-17T22:05:13.342Z,100067.58
2023-05-17T22:07:40.345Z,100064.34
2023-05-17T22:10:09.417Z,100063.88
2023-05-17T22:12:38.475Z,100065.91
2023-05-17T22:15:06.299Z,100063.42
2023-05-17T22:17:47.069Z,100063.65
2023-05-17T22:20:19.759Z,100066.44
2023-05-17T22:22:46.823Z,100063.21
2023-05-17T22:25:15.632Z,100068.55
2023-05-17T22:27:42.909Z,100066.45
2023-05-17T22:30:10.675Z,100071.27
2023-05-17T22:32:37.687Z,100067.30
2023-05-17T22:35:05.882Z,100068.52
2023-05-17T22:37:33.067Z,100067.55
2023-05-17T22:40:00.063Z,100067.75
2023-05-17T22:42:27.319Z,100072.54
2023-05-17T22:44:54.212Z,100073.46
2023-05-17T22:47:23.001Z,100071.86
2023-05-17T22:49:52.724Z,100073.84
2023-05-17T22:52:20.075Z,100074.18
2023-05-17T22:54:46.906Z,100076.80
2023-05-17T22:57:13.832Z,100077.94
2023-05-17T22:59:44.043Z,100078.02
2023-05-17T23:02:12.376Z,100081.73
2023-05-17T23:04:40.257Z,100083.65
2023-05-17T23:07:10.214Z,100083.40
2023-05-17T23:09:40.981Z,100084.69
2023-05-17T23:12:09.062Z,100086.60
2023-05-17T23:14:36.968Z,100091.02
2023-05-17T23:17:04.624Z,100088.98
2023-05-17T23:19:32.451Z,100090.70
2023-05-17T23:22:03.492Z,100090.52
2023-05-17T23:24:30.402Z,100093.63
2023-05-17T23:26:57.785Z,100093.81
2023-05-17T23:29:26.243Z,100096.15
2023-05-17T23:31:53.518Z,100098.09
2023-05-17T23:34:21.130Z,100102.00
2023-05-17T23:36:48.135Z,100102.64
2023-05-17T23:39:15.842Z,100102.21
2023-05-17T23:41:43.173Z,100099.52
2023-05-17T23:44:10.554Z,100096.56
2023-05-17T23:46:38.099Z,100101.40
2023-05-17T23:49:05.929Z,100102.50
2023-05-17T23:51:34.706Z,100104.15
2023-05-17T23:54:01.911Z,100105.69
2023-05-17T23:56:28.888Z,100111.50
2023-05-17T23:58:56.138Z,100114.31
